aviador You're here:

EIDW Decoded Metar

DUBLIN in IRELAND
Report Time2018-02-20 03:00:00
UTC Time2018-02-20 03:29:13
Flight Rules vfr VFR
Wind290° at 11 kt
W.Decomp.*RWY 28: 10.7 kt HW 2.7 kt RCW
RWY 34: 7.6 kt HW 7.9 kt LCW
W.Rank290° ranks 11
Current wind is above 290° avg. (9.8)
Visibility9999 m
Phenomena:N/A
Clouds:Few 012 Hf
CeilingNone
Temp03°C (ISA -12)
Dew Point03°C (100% RH)
AAT-2.5°C
QNH1024 hPa
Density Alt-1,427 ft
Elevation242 ft
Report Wrong Elevation
Raw Report
METAR EIDW 200300Z 29011KT 9999 FEW012 03/03 Q1024 NOSIG=

Extra information for EIDW:More info

Metar Taf Metar & Taf Last 4 Metars F.Rules Stats Wind Profile Meteogram Temp Stats Airport Information Weather charts Add Link Nearby VenuesMetar ALERT Operation Metar Decoded Social comments